createdAt,value
2019-03-28T00:00:19.834Z,5.97
2019-03-28T00:01:20.593Z,5.91
2019-03-28T00:02:22.190Z,5.88
2019-03-28T00:03:22.233Z,5.81
2019-03-28T00:04:22.712Z,5.76
2019-03-28T00:05:23.468Z,5.77
2019-03-28T00:06:24.391Z,5.8
2019-03-28T00:07:25.345Z,5.8
2019-03-28T00:08:25.836Z,5.81
2019-03-28T00:09:26.597Z,5.87
2019-03-28T00:10:27.358Z,5.88
2019-03-28T00:11:28.115Z,5.76
2019-03-28T00:12:29.783Z,5.8
2019-03-28T00:13:30.904Z,5.74
2019-03-28T00:14:31.133Z,5.77
2019-03-28T00:15:31.900Z,5.79
2019-03-28T00:16:32.714Z,5.79
2019-03-28T00:17:33.227Z,5.77
2019-03-28T00:18:33.707Z,5.79
2019-03-28T00:19:35.315Z,5.83
2019-03-28T00:20:36.306Z,5.9
2019-03-28T00:21:36.097Z,5.8
2019-03-28T00:22:36.584Z,5.84
2019-03-28T00:23:37.620Z,5.8
2019-03-28T00:24:38.931Z,5.95
2019-03-28T00:25:39.690Z,5.92
2019-03-28T00:26:40.730Z,5.9
2019-03-28T00:27:41.213Z,5.94
2019-03-28T00:28:41.726Z,5.9
2019-03-28T00:29:42.064Z,5.94
2019-03-28T00:30:42.823Z,5.84
2019-03-28T00:31:43.247Z,6.01
2019-03-28T00:32:44.285Z,5.88
2019-03-28T00:33:45.751Z,5.87
2019-03-28T00:34:47.067Z,5.91
2019-03-28T00:35:47.450Z,5.88
2019-03-28T00:36:48.204Z,5.95
2019-03-28T00:37:48.606Z,5.92
2019-03-28T00:38:49.109Z,5.81
2019-03-28T00:39:49.716Z,5.81
2019-03-28T00:40:50.198Z,5.81
2019-03-28T00:41:50.403Z,5.83
2019-03-28T00:42:50.884Z,5.79
2019-03-28T00:43:52.358Z,5.8
2019-03-28T00:44:53.137Z,5.7
2019-03-28T00:45:53.627Z,5.77
2019-03-28T00:46:54.104Z,5.77
2019-03-28T00:47:56.028Z,5.69
2019-03-28T00:48:55.504Z,5.8
2019-03-28T00:49:55.708Z,5.72
2019-03-28T00:50:56.193Z,5.81
2019-03-28T00:51:57.022Z,5.77
2019-03-28T00:52:57.503Z,5.7
2019-03-28T00:53:58.054Z,5.72
2019-03-28T00:54:58.535Z,5.64
2019-03-28T00:55:59.306Z,5.61
2019-03-28T00:57:00.061Z,5.55
2019-03-28T00:58:00.855Z,5.58
2019-03-28T00:59:01.419Z,5.55
2019-03-28T01:00:02.756Z,5.55
2019-03-28T01:01:03.095Z,5.58
2019-03-28T01:02:03.966Z,5.52
2019-03-28T01:03:04.723Z,5.58
2019-03-28T01:04:05.761Z,5.62
2019-03-28T01:05:05.519Z,5.55
2019-03-28T01:06:05.720Z,5.49
2019-03-28T01:07:06.661Z,5.59
2019-03-28T01:08:07.033Z,5.54
2019-03-28T01:09:08.623Z,5.54
2019-03-28T01:10:08.658Z,5.49
2019-03-28T01:11:09.420Z,5.54
2019-03-28T01:12:09.912Z,5.58
2019-03-28T01:13:10.121Z,5.59
2019-03-28T01:14:10.606Z,5.61
2019-03-28T01:15:11.694Z,5.58
2019-03-28T01:16:12.180Z,5.46
2019-03-28T01:17:12.822Z,5.59
2019-03-28T01:18:14.039Z,5.58
2019-03-28T01:19:15.074Z,5.52
2019-03-28T01:20:15.123Z,5.46
2019-03-28T01:21:16.269Z,5.56
2019-03-28T01:22:16.048Z,5.58
2019-03-28T01:23:16.820Z,5.56
2019-03-28T01:24:17.575Z,5.55
2019-03-28T01:25:17.776Z,5.49
2019-03-28T01:26:19.288Z,5.41
2019-03-28T01:27:19.055Z,5.49
2019-03-28T01:28:19.365Z,5.44
2019-03-28T01:29:20.124Z,5.44
2019-03-28T01:30:20.333Z,5.44
2019-03-28T01:31:20.884Z,5.37
2019-03-28T01:32:21.367Z,5.26
2019-03-28T01:33:21.575Z,5.25
2019-03-28T01:34:21.779Z,5.31
2019-03-28T01:35:23.733Z,5.23
2019-03-28T01:36:23.224Z,5.18
2019-03-28T01:37:23.446Z,5.19
2019-03-28T01:38:24.125Z,5.23
2019-03-28T01:39:24.634Z,5.18
2019-03-28T01:40:26.758Z,5.28
2019-03-28T01:41:26.530Z,5.26
2019-03-28T01:42:27.290Z,5.26
2019-03-28T01:43:28.201Z,5.23
2019-03-28T01:44:28.964Z,5.07
2019-03-28T01:45:29.718Z,5.08
2019-03-28T01:46:29.921Z,5.08
2019-03-28T01:47:31.235Z,5.16
2019-03-28T01:48:32.182Z,5.2
2019-03-28T01:49:33.505Z,5.31
2019-03-28T01:50:34.539Z,5.28
2019-03-28T01:51:35.016Z,5.31
2019-03-28T01:52:35.066Z,5.4
2019-03-28T01:53:36.103Z,5.38
2019-03-28T01:54:36.586Z,5.36
2019-03-28T01:55:37.364Z,5.26
2019-03-28T01:56:37.854Z,5.22
2019-03-28T01:57:38.065Z,5.18
2019-03-28T01:58:39.005Z,5.12
2019-03-28T01:59:39.766Z,5.2
2019-03-28T02:00:39.970Z,5.13
2019-03-28T02:01:40.734Z,5.29
2019-03-28T02:02:41.216Z,5.2
2019-03-28T02:03:41.982Z,5.25
2019-03-28T02:04:42.184Z,5.22
2019-03-28T02:05:43.598Z,5.08
2019-03-28T02:06:44.078Z,5.13
2019-03-28T02:07:44.555Z,5.02
2019-03-28T02:08:44.773Z,5.02
2019-03-28T02:09:45.258Z,5.13
2019-03-28T02:10:45.762Z,5.12
2019-03-28T02:11:46.815Z,5.19
2019-03-28T02:12:47.408Z,5.15
2019-03-28T02:13:48.238Z,5.15
2019-03-28T02:14:48.438Z,5.07
2019-03-28T02:15:49.198Z,5.05
2019-03-28T02:16:49.952Z,5.13
2019-03-28T02:17:50.430Z,5.07
2019-03-28T02:18:50.819Z,5.04
2019-03-28T02:19:51.304Z,4.9
2019-03-28T02:20:51.784Z,4.9
2019-03-28T02:21:53.192Z,4.94
2019-03-28T02:22:53.012Z,4.74
2019-03-28T02:23:53.794Z,4.83
2019-03-28T02:24:54.550Z,4.84
2019-03-28T02:25:55.591Z,4.87
2019-03-28T02:26:56.904Z,4.83
2019-03-28T02:27:57.446Z,4.89
2019-03-28T02:28:58.670Z,4.82
2019-03-28T02:29:59.430Z,4.84
2019-03-28T02:31:00.632Z,4.95
2019-03-28T02:32:01.532Z,4.95
2019-03-28T02:33:02.426Z,5.01
2019-03-28T02:34:02.967Z,5.07
2019-03-28T02:35:03.915Z,5
2019-03-28T02:36:05.013Z,5.05
2019-03-28T02:37:05.936Z,5.07
2019-03-28T02:38:06.873Z,5.05
2019-03-28T02:39:08.501Z,5.04
2019-03-28T02:40:08.679Z,5.02
2019-03-28T02:41:09.730Z,5.12
2019-03-28T02:42:11.127Z,5.19
2019-03-28T02:43:12.075Z,5.18
2019-03-28T02:44:13.404Z,5.16
2019-03-28T02:45:14.300Z,5.25
2019-03-28T02:46:15.069Z,5.28
2019-03-28T02:47:16.672Z,5.28
2019-03-28T02:48:17.559Z,5.31
2019-03-28T02:49:18.069Z,5.25
2019-03-28T02:50:19.639Z,5.2
2019-03-28T02:51:20.253Z,5.31
2019-03-28T02:52:21.902Z,5.23
2019-03-28T02:53:21.960Z,5.19
2019-03-28T02:54:22.569Z,5.2
2019-03-28T02:55:24.793Z,5.08
2019-03-28T02:56:23.851Z,5.07
2019-03-28T02:57:45.069Z,5.04
2019-03-28T02:58:45.801Z,5.07
2019-03-28T02:59:46.508Z,5.04
2019-03-28T03:00:49.057Z,5.1
2019-03-28T03:01:47.477Z,5.05
2019-03-28T03:02:48.540Z,5.04
2019-03-28T03:03:49.900Z,5.01
2019-03-28T03:04:50.496Z,5.01
2019-03-28T03:05:51.118Z,5.01
2019-03-28T03:06:52.439Z,4.89
2019-03-28T03:07:53.049Z,5.02
2019-03-28T03:08:53.261Z,4.87
2019-03-28T03:09:54.295Z,5
2019-03-28T03:10:54.354Z,4.97
2019-03-28T03:11:55.227Z,5.02
2019-03-28T03:12:56.107Z,5.15
2019-03-28T03:13:57.121Z,5.26
2019-03-28T03:14:58.161Z,5.13
2019-03-28T03:15:58.483Z,5.22
2019-03-28T03:16:59.076Z,5.19
2019-03-28T03:18:00.114Z,5.18
2019-03-28T03:19:01.866Z,5.18
2019-03-28T03:20:02.219Z,5.18
2019-03-28T03:21:03.111Z,5.19
2019-03-28T03:22:04.391Z,5.25
2019-03-28T03:23:05.157Z,5.25
2019-03-28T03:24:06.185Z,5.26
2019-03-28T03:25:07.548Z,5.33
2019-03-28T03:26:08.076Z,5.43
2019-03-28T03:27:09.150Z,5.38
2019-03-28T03:28:11.112Z,5.4
2019-03-28T03:29:11.497Z,5.43
2019-03-28T03:30:12.434Z,5.41
2019-03-28T03:31:12.876Z,5.36
2019-03-28T03:31:26.139Z,5.41
2019-03-28T03:32:23.887Z,5.38
2019-03-28T03:33:24.813Z,5.37
2019-03-28T03:34:26.014Z,5.43
2019-03-28T03:35:26.231Z,5.43
2019-03-28T03:36:27.059Z,5.44
2019-03-28T03:37:29.715Z,5.41
2019-03-28T03:38:28.980Z,5.47
2019-03-28T03:39:30.599Z,5.52
2019-03-28T03:40:31.603Z,5.49
2019-03-28T03:41:32.967Z,5.44
2019-03-28T03:42:34.336Z,5.46
2019-03-28T03:43:34.652Z,5.34
2019-03-28T03:44:36.268Z,5.34
2019-03-28T03:45:36.958Z,5.43
2019-03-28T03:46:37.738Z,5.41
2019-03-28T03:47:39.066Z,5.44
2019-03-28T03:48:40.500Z,5.38
2019-03-28T03:49:40.545Z,5.37
2019-03-28T03:50:42.437Z,5.28
2019-03-28T03:51:47.075Z,5.41
2019-03-28T03:52:43.614Z,5.38
2019-03-28T03:53:44.843Z,5.29
2019-03-28T03:54:45.463Z,5.31
2019-03-28T03:55:45.796Z,5.37
2019-03-28T03:56:46.325Z,5.33
2019-03-28T03:57:46.668Z,5.38
2019-03-28T03:58:47.736Z,5.36
2019-03-28T03:59:49.125Z,5.38
2019-03-28T04:00:49.681Z,5.38
2019-03-28T04:01:50.610Z,5.34
2019-03-28T04:02:50.832Z,5.36
2019-03-28T04:03:51.514Z,5.33
2019-03-28T04:04:57.049Z,5.4
2019-03-28T04:05:53.402Z,5.37
2019-03-28T04:06:54.284Z,5.38
2019-03-28T04:07:54.619Z,5.44
2019-03-28T04:08:55.311Z,5.41
2019-03-28T04:09:55.937Z,5.4
2019-03-28T04:10:55.699Z,5.29
2019-03-28T04:11:56.953Z,5.28
2019-03-28T04:12:57.927Z,5.26
2019-03-28T04:13:58.568Z,5.22
2019-03-28T04:14:59.488Z,5.33
2019-03-28T04:16:00.048Z,5.28
2019-03-28T04:17:00.105Z,5.22
2019-03-28T04:18:01.441Z,5.16
2019-03-28T04:19:02.100Z,5.19
2019-03-28T04:20:03.836Z,5.12
2019-03-28T04:21:03.895Z,5.16
2019-03-28T04:22:04.669Z,5.12
2019-03-28T04:23:06.364Z,5.12
2019-03-28T04:24:06.150Z,5.12
2019-03-28T04:25:07.838Z,5.13
2019-03-28T04:26:08.447Z,5.08
2019-03-28T04:27:10.052Z,5.07
2019-03-28T04:28:09.677Z,5.02
2019-03-28T04:29:10.746Z,5.01
2019-03-28T04:30:11.361Z,5
2019-03-28T04:31:12.975Z,5.02
2019-03-28T04:32:13.027Z,5.02
2019-03-28T04:33:13.626Z,5.04
2019-03-28T04:34:14.499Z,5
2019-03-28T04:35:14.263Z,4.97
2019-03-28T04:36:15.513Z,4.98
2019-03-28T04:37:15.726Z,5.02
2019-03-28T04:38:17.064Z,4.9
2019-03-28T04:39:18.042Z,4.83
2019-03-28T04:40:19.094Z,4.9
2019-03-28T04:41:20.412Z,4.86
2019-03-28T04:42:21.488Z,4.95
2019-03-28T04:43:22.003Z,4.98
2019-03-28T04:44:23.013Z,5.05
2019-03-28T04:45:23.537Z,4.94
2019-03-28T04:46:24.013Z,5.02
2019-03-28T04:47:24.500Z,5.05
2019-03-28T04:48:25.266Z,5
2019-03-28T04:49:25.976Z,4.97
2019-03-28T04:50:26.179Z,4.84
2019-03-28T04:51:28.710Z,4.98
2019-03-28T04:52:28.024Z,4.87
2019-03-28T04:53:30.946Z,4.86
2019-03-28T04:54:31.979Z,4.84
2019-03-28T04:55:32.468Z,4.76
2019-03-28T04:56:32.671Z,4.76
2019-03-28T04:57:33.436Z,4.75
2019-03-28T04:58:45.846Z,4.67
2019-03-28T04:59:45.324Z,4.7
2019-03-28T05:00:45.083Z,4.7
2019-03-28T05:02:06.394Z,4.7
2019-03-28T05:03:06.348Z,4.67
2019-03-28T05:04:06.843Z,4.64
2019-03-28T05:05:07.855Z,4.61
2019-03-28T05:06:09.532Z,4.6
2019-03-28T05:07:10.295Z,4.56
2019-03-28T05:08:11.071Z,4.63
2019-03-28T05:09:11.557Z,4.53
2019-03-28T05:10:12.038Z,4.64
2019-03-28T05:11:12.528Z,4.63
2019-03-28T05:12:12.731Z,4.56
2019-03-28T05:13:13.217Z,4.56
2019-03-28T05:14:14.286Z,4.63
2019-03-28T05:15:15.331Z,4.66
2019-03-28T05:16:16.092Z,4.63
2019-03-28T05:17:17.135Z,4.66
2019-03-28T05:18:18.453Z,4.68
2019-03-28T05:19:18.934Z,4.56
2019-03-28T05:20:19.495Z,4.57
2019-03-28T05:21:20.540Z,4.52
2019-03-28T05:22:21.021Z,4.46
2019-03-28T05:23:22.215Z,4.52
2019-03-28T05:24:26.670Z,4.48
2019-03-28T05:25:23.158Z,4.48
2019-03-28T05:26:23.939Z,4.48
2019-03-28T05:27:24.992Z,4.49
2019-03-28T05:28:27.018Z,4.57
2019-03-28T05:29:28.001Z,4.45
2019-03-28T05:30:29.042Z,4.53
2019-03-28T05:31:29.806Z,4.57
2019-03-28T05:32:30.290Z,4.52
2019-03-28T05:33:30.777Z,4.43
2019-03-28T05:34:31.538Z,4.52
2019-03-28T05:35:32.365Z,4.52
2019-03-28T05:36:32.871Z,4.52
2019-03-28T05:37:33.144Z,4.5
2019-03-28T05:38:34.178Z,4.56
2019-03-28T05:39:34.387Z,4.49
2019-03-28T05:40:35.193Z,4.56
2019-03-28T05:41:36.106Z,4.57
2019-03-28T05:42:37.720Z,4.57
2019-03-28T05:43:38.284Z,4.56
2019-03-28T05:44:38.335Z,4.58
2019-03-28T05:45:39.121Z,4.68
2019-03-28T05:46:40.514Z,4.7
2019-03-28T05:47:41.005Z,4.63
2019-03-28T05:48:41.505Z,4.63
2019-03-28T05:49:42.549Z,4.63
2019-03-28T05:50:43.307Z,4.71
2019-03-28T05:51:44.350Z,4.68
2019-03-28T05:52:44.386Z,4.64
2019-03-28T05:53:46.801Z,4.57
2019-03-28T05:54:46.298Z,4.6
2019-03-28T05:55:47.059Z,4.56
2019-03-28T05:56:47.820Z,4.64
2019-03-28T05:57:48.028Z,4.63
2019-03-28T05:58:48.238Z,4.63
2019-03-28T05:59:48.727Z,4.74
2019-03-28T06:00:52.592Z,4.7
2019-03-28T06:01:53.078Z,4.68
2019-03-28T06:02:53.845Z,4.71
2019-03-28T06:03:54.628Z,4.66
2019-03-28T06:04:55.397Z,4.68
2019-03-28T06:05:56.252Z,4.68
2019-03-28T06:06:56.731Z,4.71
2019-03-28T06:07:57.770Z,4.84
2019-03-28T06:08:57.978Z,4.78
2019-03-28T06:09:58.801Z,4.87
2019-03-28T06:10:59.805Z,4.79
2019-03-28T06:12:00.583Z,4.83
2019-03-28T06:13:00.643Z,4.83
2019-03-28T06:14:01.903Z,4.78
2019-03-28T06:15:02.392Z,4.83
2019-03-28T06:16:04.383Z,4.84
2019-03-28T06:17:04.871Z,4.78
2019-03-28T06:18:04.926Z,4.82
2019-03-28T06:19:05.177Z,4.78
2019-03-28T06:20:06.611Z,4.87
2019-03-28T06:21:07.369Z,4.78
2019-03-28T06:22:08.419Z,4.78
2019-03-28T06:23:09.208Z,4.87
2019-03-28T06:24:09.183Z,5.02
2019-03-28T06:25:10.231Z,5.07
2019-03-28T06:26:10.869Z,5.12
2019-03-28T06:27:10.642Z,5.34
2019-03-28T06:28:11.719Z,5.28
2019-03-28T06:29:26.662Z,5.33
2019-03-28T06:30:22.544Z,5.38
2019-03-28T06:31:23.601Z,5.46
2019-03-28T06:32:24.096Z,5.51
2019-03-28T06:33:24.304Z,5.52
2019-03-28T06:34:24.799Z,5.62
2019-03-28T06:35:25.414Z,5.72
2019-03-28T06:36:28.069Z,5.77
2019-03-28T06:37:28.279Z,5.83
2019-03-28T06:38:29.077Z,5.92
2019-03-28T06:39:29.889Z,5.83
2019-03-28T06:40:30.230Z,5.99
2019-03-28T06:41:35.030Z,5.95
2019-03-28T06:41:46.160Z,6.05
2019-03-28T06:41:52.166Z,5.94
2019-03-28T06:42:52.536Z,5.98
2019-03-28T06:43:53.436Z,6.1
2019-03-28T06:44:54.685Z,6.15
2019-03-28T06:45:56.059Z,5.99
2019-03-28T06:47:00.146Z,5.99
2019-03-28T06:47:09.620Z,6.06
2019-03-28T06:47:22.668Z,6.15
2019-03-28T06:47:27.693Z,6.07
2019-03-28T06:48:28.105Z,6.12
2019-03-28T06:49:28.991Z,6.39
2019-03-28T06:50:30.727Z,6.38
2019-03-28T06:51:31.532Z,6.5
2019-03-28T06:52:32.580Z,6.62
2019-03-28T06:53:33.063Z,6.75
2019-03-28T06:54:36.027Z,6.68
2019-03-28T06:54:43.803Z,6.71
2019-03-28T06:55:44.214Z,6.89
2019-03-28T06:56:45.273Z,7.14
2019-03-28T06:57:46.095Z,7.18
2019-03-28T06:58:46.861Z,7.23
2019-03-28T06:59:47.678Z,7.43
2019-03-28T07:00:49.008Z,7.59
2019-03-28T07:01:49.648Z,7.78
2019-03-28T07:02:49.859Z,7.66
2019-03-28T07:03:50.067Z,7.83
2019-03-28T07:04:51.115Z,7.9
2019-03-28T07:05:51.885Z,7.85
2019-03-28T07:06:52.378Z,7.87
2019-03-28T07:07:52.581Z,7.93
2019-03-28T07:08:53.474Z,8.01
2019-03-28T07:09:54.988Z,8.01
2019-03-28T07:11:08.589Z,7.85
2019-03-28T07:11:19.340Z,7.8
2019-03-28T07:11:29.894Z,7.9
2019-03-28T07:11:38.046Z,7.87
2019-03-28T07:12:36.807Z,7.85
2019-03-28T07:13:37.554Z,7.85
2019-03-28T07:14:38.477Z,7.78
2019-03-28T07:15:38.877Z,7.84
2019-03-28T07:16:42.974Z,8.09
2019-03-28T07:17:42.411Z,8.41
2019-03-28T07:18:42.130Z,8.5
2019-03-28T07:19:44.278Z,8.77
2019-03-28T07:20:44.309Z,8.97
2019-03-28T07:21:45.655Z,8.99
2019-03-28T07:22:47.390Z,9.08
2019-03-28T07:23:48.443Z,9.21
2019-03-28T07:24:49.495Z,9.29
2019-03-28T07:25:49.724Z,9.4
2019-03-28T07:26:49.935Z,9.54
2019-03-28T07:27:50.854Z,9.55
2019-03-28T07:28:55.202Z,9.64
2019-03-28T07:29:54.101Z,9.69
2019-03-28T07:30:57.354Z,9.64
2019-03-28T07:31:06.513Z,9.67
2019-03-28T07:32:07.643Z,9.66
2019-03-28T07:32:17.347Z,9.76
2019-03-28T07:33:15.322Z,9.87
2019-03-28T07:34:19.390Z,9.92
2019-03-28T07:34:27.632Z,9.97
2019-03-28T07:35:26.044Z,9.87
2019-03-28T07:36:26.531Z,9.99
2019-03-28T07:37:29.493Z,10.15
2019-03-28T07:38:30.262Z,10.33
2019-03-28T07:39:30.471Z,10.45
2019-03-28T07:40:36.280Z,10.43
2019-03-28T07:41:36.183Z,10.43
2019-03-28T07:42:36.418Z,10.61
2019-03-28T07:43:36.935Z,10.71
2019-03-28T07:44:38.665Z,10.58
2019-03-28T07:45:39.979Z,10.62
2019-03-28T07:46:41.169Z,10.68
2019-03-28T07:47:41.939Z,10.62
2019-03-28T07:48:47.495Z,10.55
2019-03-28T07:48:55.930Z,10.51
2019-03-28T07:49:53.880Z,10.33
2019-03-28T07:50:58.434Z,10.43
2019-03-28T07:51:59.142Z,10.49
2019-03-28T07:52:08.951Z,10.59
2019-03-28T07:52:22.743Z,10.55
2019-03-28T07:52:32.670Z,10.45
2019-03-28T07:52:37.317Z,10.61
2019-03-28T07:53:37.979Z,10.25
2019-03-28T07:54:39.378Z,10.2
2019-03-28T07:55:39.447Z,10.25
2019-03-28T07:56:39.669Z,10.21
2019-03-28T07:57:41.710Z,10.45
2019-03-28T07:58:44.645Z,10.34
2019-03-28T07:59:45.702Z,10.48
2019-03-28T08:00:42.482Z,10.38
2019-03-28T08:01:42.974Z,10.39
2019-03-28T08:02:43.018Z,10.48
2019-03-28T08:03:48.009Z,10.62
2019-03-28T08:03:57.130Z,10.71
2019-03-28T08:04:54.356Z,10.86
2019-03-28T08:05:56.087Z,10.82
2019-03-28T08:06:56.851Z,10.84
2019-03-28T08:07:57.347Z,10.87
2019-03-28T08:08:57.958Z,11
2019-03-28T08:09:59.020Z,11.35
2019-03-28T08:10:59.275Z,11.52
2019-03-28T08:11:59.621Z,11.59
2019-03-28T08:13:00.426Z,11.7
2019-03-28T08:14:00.722Z,11.86
2019-03-28T08:15:01.398Z,12.07
2019-03-28T08:16:02.341Z,12.05
2019-03-28T08:17:02.990Z,12.17
2019-03-28T08:18:04.086Z,12.3
2019-03-28T08:19:08.694Z,12.51
2019-03-28T08:19:15.222Z,12.53
2019-03-28T08:20:15.716Z,12.58
2019-03-28T08:21:16.393Z,12.66
2019-03-28T08:22:17.169Z,12.9
2019-03-28T08:23:17.938Z,13.16
2019-03-28T08:24:18.436Z,13.24
2019-03-28T08:25:18.932Z,13.47
2019-03-28T08:26:19.715Z,13.45
2019-03-28T08:27:20.773Z,13.3
2019-03-28T08:28:21.540Z,13.19
2019-03-28T08:29:22.612Z,13.05
2019-03-28T08:30:22.898Z,12.87
2019-03-28T08:31:23.672Z,13.05
2019-03-28T08:32:24.458Z,13.23
2019-03-28T08:33:24.954Z,13.3
2019-03-28T08:34:25.858Z,13.54
2019-03-28T08:35:26.904Z,13.79
2019-03-28T08:36:27.541Z,14.16
2019-03-28T08:37:28.319Z,14.4
2019-03-28T08:38:28.935Z,15.11
2019-03-28T08:39:29.741Z,15.04
2019-03-28T08:40:32.214Z,15.17
2019-03-28T08:40:43.413Z,15.23
2019-03-28T08:40:54.058Z,15.29
2019-03-28T08:41:11.149Z,15.3
2019-03-28T08:42:11.492Z,15.41
2019-03-28T08:43:12.671Z,15.52
2019-03-28T08:44:12.344Z,15.83
2019-03-28T08:45:13.402Z,16.17
2019-03-28T08:46:14.302Z,16.08
2019-03-28T08:47:14.804Z,15.88
2019-03-28T08:48:15.719Z,15.75
2019-03-28T08:49:17.432Z,15.83
2019-03-28T08:50:17.653Z,15.78
2019-03-28T08:51:18.708Z,15.83
2019-03-28T08:52:19.408Z,15.55
2019-03-28T08:53:20.327Z,15.36
2019-03-28T08:54:21.214Z,15.12
2019-03-28T08:55:21.112Z,15.11
2019-03-28T08:56:22.188Z,15.12
2019-03-28T08:57:22.989Z,15.23
2019-03-28T08:58:23.224Z,14.68
2019-03-28T08:59:27.161Z,14.77
2019-03-28T08:59:37.442Z,14.7
2019-03-28T08:59:47.893Z,14.71
2019-03-28T08:59:58.121Z,14.61
2019-03-28T09:00:07.404Z,14.59
2019-03-28T09:00:54.523Z,14.38
2019-03-28T09:01:52.621Z,14.33
2019-03-28T09:02:52.857Z,14.3
2019-03-28T09:03:53.719Z,14.19
2019-03-28T09:04:54.417Z,14.22
2019-03-28T09:05:56.413Z,14.34
2019-03-28T09:06:55.784Z,14.44
2019-03-28T09:08:00.426Z,14.7
2019-03-28T09:09:02.565Z,14.77
2019-03-28T09:09:10.034Z,14.77
2019-03-28T09:10:10.103Z,15.04
2019-03-28T09:11:10.879Z,15.14
2019-03-28T09:12:11.666Z,15
2019-03-28T09:13:13.504Z,14.78
2019-03-28T09:14:14.607Z,14.58
2019-03-28T09:15:15.690Z,14.71
2019-03-28T09:16:16.144Z,14.78
2019-03-28T09:17:17.520Z,14.55
2019-03-28T09:18:18.118Z,14.49
2019-03-28T09:19:18.442Z,14.13
2019-03-28T09:20:19.401Z,13.85
2019-03-28T09:21:20.399Z,13.87
2019-03-28T09:22:20.824Z,14.04
2019-03-28T09:23:21.982Z,13.85
2019-03-28T09:24:22.629Z,13.79
2019-03-28T09:25:23.969Z,13.64
2019-03-28T09:26:24.794Z,13.78
2019-03-28T09:27:29.399Z,13.86
2019-03-28T09:27:39.108Z,13.89
2019-03-28T09:27:52.754Z,13.85
2019-03-28T09:27:59.309Z,13.8
2019-03-28T09:28:57.184Z,13.75
2019-03-28T09:29:58.018Z,13.3
2019-03-28T09:30:59.070Z,13.36
2019-03-28T09:31:59.677Z,13.31
2019-03-28T09:33:00.258Z,13.36
2019-03-28T09:34:00.759Z,13.45
2019-03-28T09:35:01.631Z,13.43
2019-03-28T09:36:02.705Z,13.4
2019-03-28T09:37:03.615Z,13.47
2019-03-28T09:38:04.399Z,13.4
2019-03-28T09:39:05.212Z,13.37
2019-03-28T09:40:05.071Z,13.36
2019-03-28T09:41:05.858Z,13.46
2019-03-28T09:42:06.955Z,13.5
2019-03-28T09:43:06.741Z,13.89
2019-03-28T09:44:06.975Z,14.11
2019-03-28T09:45:09.235Z,14.52
2019-03-28T09:46:10.004Z,14.87
2019-03-28T09:47:11.159Z,15.07
2019-03-28T09:48:13.006Z,14.59
2019-03-28T09:49:17.246Z,14.55
2019-03-28T09:49:26.568Z,14.56
2019-03-28T09:49:34.410Z,14.63
2019-03-28T09:50:35.029Z,15.29
2019-03-28T09:51:36.988Z,15.43
2019-03-28T09:52:38.022Z,15.44
2019-03-28T09:53:38.457Z,15.91
2019-03-28T09:54:39.514Z,15.72
2019-03-28T09:55:39.733Z,15.47
2019-03-28T09:56:40.807Z,15.17
2019-03-28T09:57:41.857Z,14.79
2019-03-28T09:58:42.629Z,14.62
2019-03-28T09:59:43.131Z,14.51
2019-03-28T10:00:44.171Z,14.16
2019-03-28T10:01:45.224Z,14
2019-03-28T10:02:46.002Z,14.11
2019-03-28T10:03:49.511Z,14.05
2019-03-28T10:04:52.297Z,14.16
2019-03-28T10:04:59.101Z,14.2
2019-03-28T10:05:59.208Z,14.36
2019-03-28T10:06:59.889Z,14.67
2019-03-28T10:08:00.940Z,14.44
2019-03-28T10:09:01.277Z,14.56
2019-03-28T10:10:08.889Z,14.37
2019-03-28T10:10:12.710Z,14.44
2019-03-28T10:11:12.832Z,14.81
2019-03-28T10:12:14.453Z,15.33
2019-03-28T10:13:14.511Z,15.88
2019-03-28T10:14:15.308Z,16.51
2019-03-28T10:15:16.444Z,16.84
2019-03-28T10:16:17.205Z,16.17
2019-03-28T10:17:17.575Z,15.98
2019-03-28T10:18:18.745Z,15.7
2019-03-28T10:19:19.580Z,15.57
2019-03-28T10:20:20.122Z,15.75
2019-03-28T10:21:21.710Z,16.13
2019-03-28T10:22:23.767Z,16.18
2019-03-28T10:23:24.907Z,15.92
2019-03-28T10:24:26.423Z,15.88
2019-03-28T10:25:30.552Z,16.05
2019-03-28T10:25:40.544Z,15.98
2019-03-28T10:25:50.180Z,16.22
2019-03-28T10:26:00.760Z,16.21
2019-03-28T10:26:08.366Z,16.31
2019-03-28T10:27:08.462Z,16.18
2019-03-28T10:28:09.242Z,16.55
2019-03-28T10:29:10.013Z,16.37
2019-03-28T10:30:11.139Z,16.4
2019-03-28T10:31:18.077Z,16.4
2019-03-28T10:31:21.599Z,16.34
2019-03-28T10:32:21.871Z,15.88
2019-03-28T10:33:22.663Z,15.6
2019-03-28T10:34:23.550Z,15.15
2019-03-28T10:35:24.614Z,14.79
2019-03-28T10:36:28.546Z,14.31
2019-03-28T10:37:26.048Z,14.08
2019-03-28T10:38:26.859Z,13.79
2019-03-28T10:39:27.083Z,13.86
2019-03-28T10:40:28.423Z,13.85
2019-03-28T10:41:30.622Z,14.43
2019-03-28T10:42:31.450Z,15.05
2019-03-28T10:43:32.235Z,15.43
2019-03-28T10:44:32.770Z,15.96
2019-03-28T10:45:34.948Z,15.91
2019-03-28T10:46:35.663Z,15.88
2019-03-28T10:47:36.455Z,15.8
2019-03-28T10:48:37.586Z,15.87
2019-03-28T10:49:37.740Z,15.72
2019-03-28T10:50:48.197Z,15.52
2019-03-28T10:51:48.440Z,15.32
2019-03-28T10:52:49.227Z,15.35
2019-03-28T10:53:49.290Z,15.05
2019-03-28T10:54:51.764Z,14.28
2019-03-28T10:55:54.110Z,14.38
2019-03-28T10:57:35.587Z,14.33
2019-03-28T10:58:20.728Z,14.23
2019-03-28T10:59:28.976Z,14.28
2019-03-28T11:00:29.715Z,14.36
2019-03-28T11:01:52.240Z,14.31
2019-03-28T11:02:52.486Z,14.18
2019-03-28T11:03:52.667Z,14.52
2019-03-28T11:04:53.102Z,14.94
2019-03-28T11:05:53.686Z,14.94
2019-03-28T11:06:56.459Z,15.04
2019-03-28T11:07:55.725Z,14.78
2019-03-28T11:08:56.504Z,14.25
2019-03-28T11:09:57.297Z,14.2
2019-03-28T11:10:58.034Z,14.18
2019-03-28T11:11:59.083Z,14.01
2019-03-28T11:12:59.583Z,14.13
2019-03-28T11:14:00.664Z,14.61
2019-03-28T11:15:02.636Z,15.11
2019-03-28T11:15:11.190Z,15.14
2019-03-28T11:16:18.648Z,15.5
2019-03-28T11:16:21.486Z,15.44
2019-03-28T11:17:23.082Z,15.54
2019-03-28T11:18:23.860Z,15.52
2019-03-28T11:19:25.257Z,15.47
2019-03-28T11:20:26.080Z,15.19
2019-03-28T11:21:26.575Z,15.18
2019-03-28T11:22:27.627Z,15.18
2019-03-28T11:23:28.677Z,14.97
2019-03-28T11:24:30.096Z,14.78
2019-03-28T11:25:32.024Z,14.77
2019-03-28T11:26:33.179Z,14.9
2019-03-28T11:27:35.231Z,14.86
2019-03-28T11:28:34.306Z,14.86
2019-03-28T11:29:37.190Z,15.14
2019-03-28T11:30:36.952Z,15.5
2019-03-28T11:31:53.585Z,15.9
2019-03-28T11:31:58.831Z,15.9
2019-03-28T11:33:00.230Z,15.88
2019-03-28T11:33:09.903Z,15.87
2019-03-28T11:34:09.495Z,15.98
2019-03-28T11:35:10.153Z,16.36
2019-03-28T11:36:10.653Z,16.51
2019-03-28T11:37:34.945Z,16.54
2019-03-28T11:38:33.659Z,16.54
2019-03-28T11:39:35.393Z,16.58
2019-03-28T11:40:35.270Z,16.59
2019-03-28T11:41:36.222Z,16.65
2019-03-28T11:42:37.413Z,16.74
2019-03-28T11:43:37.926Z,16.91
2019-03-28T11:44:38.708Z,16.91
2019-03-28T11:45:39.211Z,16.77
2019-03-28T11:46:41.945Z,16.62
2019-03-28T11:47:43.166Z,16.68
2019-03-28T11:47:52.171Z,16.66
2019-03-28T11:48:02.224Z,16.64
2019-03-28T11:49:01.615Z,16.58
2019-03-28T11:50:02.686Z,16.65
2019-03-28T11:51:03.476Z,16.43
2019-03-28T11:52:06.903Z,16.22
2019-03-28T11:53:09.642Z,16.49
2019-03-28T11:54:07.225Z,16.66
2019-03-28T11:55:07.487Z,16.62
2019-03-28T11:56:10.366Z,16.79
2019-03-28T11:57:10.130Z,16.74
2019-03-28T11:58:12.656Z,16.65
2019-03-28T11:59:12.314Z,16.59
2019-03-28T12:00:12.655Z,16.64
2019-03-28T12:01:12.505Z,16.54
2019-03-28T12:02:26.307Z,16.32
2019-03-28T12:03:24.875Z,16.47
2019-03-28T12:04:27.596Z,16.59
2019-03-28T12:05:27.128Z,16.57
2019-03-28T12:06:27.901Z,16.66
2019-03-28T12:07:28.680Z,16.57
2019-03-28T12:08:29.470Z,16.61
2019-03-28T12:09:35.333Z,16.55
2019-03-28T12:09:41.094Z,16.55
2019-03-28T12:10:41.203Z,16.51
2019-03-28T12:11:41.704Z,16.55
2019-03-28T12:12:42.767Z,16.41
2019-03-28T12:13:46.996Z,16.54
2019-03-28T12:14:48.722Z,16.57
2019-03-28T12:15:52.982Z,16.61
2019-03-28T12:16:50.476Z,16.58
2019-03-28T12:17:50.973Z,16.58
2019-03-28T12:18:51.920Z,16.91
2019-03-28T12:19:53.006Z,16.82
2019-03-28T12:20:53.780Z,16.99
2019-03-28T12:21:54.844Z,17.23
2019-03-28T12:22:57.381Z,17.24
2019-03-28T12:23:58.486Z,16.92
2019-03-28T12:24:59.536Z,16.8
2019-03-28T12:26:03.861Z,16.83
2019-03-28T12:26:13.203Z,16.86
2019-03-28T12:26:23.633Z,16.84
2019-03-28T12:26:34.383Z,16.8
2019-03-28T12:26:44.981Z,16.8
2019-03-28T12:26:52.355Z,16.79
2019-03-28T12:27:51.690Z,16.82
2019-03-28T12:28:52.470Z,16.65
2019-03-28T12:29:53.530Z,16.59
2019-03-28T12:30:54.780Z,16.21
2019-03-28T12:31:55.847Z,16.1
2019-03-28T12:33:00.444Z,16.17
2019-03-28T12:33:09.811Z,16.26
2019-03-28T12:34:09.280Z,16.41
2019-03-28T12:35:07.781Z,16.66
2019-03-28T12:36:09.911Z,16.64
2019-03-28T12:37:11.652Z,16.83
2019-03-28T12:38:10.725Z,16.83
2019-03-28T12:39:17.173Z,16.74